Time;durP1;ratioP1;P1;durP2;ratioP2;P2;SDS_P1;SDS_P2;PMS_P1;PMS_P2;Temp;Humidity;BMP_temperature;BMP_pressure;BME280_temperature;BME280_humidity;BME280_pressure;Samples;Min_cycle;Max_cycle;Signal;HPM_P1;HPM_P2
2022/12/21 00:01:20;;;;;;;170.40;96.30;;;;;;;-0.03;90.10;99027.36;85766;1287;99629;-76
2022/12/21 00:03:21;;;;;;;161.10;85.60;;;;;;;-0.04;90.46;99009.23;85943;1288;22579;-76
2022/12/21 00:05:23;;;;;;;173.70;91.40;;;;;;;-0.04;90.60;99004.92;86045;1287;25937;-76
2022/12/21 00:07:25;;;;;;;192.10;97.10;;;;;;;-0.04;90.39;99006.48;86110;1284;98692;-77
2022/12/21 00:09:27;;;;;;;193.10;103.40;;;;;;;-0.05;90.40;99005.27;86308;1281;22966;-74
2022/12/21 00:11:30;;;;;;;170.60;97.90;;;;;;;-0.08;90.39;98994.91;86180;1283;22515;-76
2022/12/21 00:13:32;;;;;;;171.40;93.40;;;;;;;-0.10;90.41;98996.30;86133;1283;99703;-75
2022/12/21 00:15:34;;;;;;;165.60;95.20;;;;;;;-0.12;90.27;98995.27;86189;1291;23040;-76
2022/12/21 00:17:35;;;;;;;154.30;85.50;;;;;;;-0.17;90.26;98995.12;86304;1286;22970;-76
2022/12/21 00:19:37;;;;;;;177.20;96.40;;;;;;;-0.14;90.30;99004.95;86169;1297;22502;-76
2022/12/21 00:21:39;;;;;;;161.30;89.90;;;;;;;-0.13;90.39;99009.45;86313;1281;22753;-75
2022/12/21 00:23:41;;;;;;;160.80;87.20;;;;;;;-0.14;90.24;99007.20;86108;1290;99168;-72
2022/12/21 00:25:43;;;;;;;152.70;84.60;;;;;;;-0.16;90.34;99000.30;86345;1291;22569;-76
2022/12/21 00:27:45;;;;;;;180.90;96.80;;;;;;;-0.17;90.31;98997.55;86231;1288;22939;-75
2022/12/21 00:29:46;;;;;;;164.60;88.00;;;;;;;-0.18;90.51;98989.95;86151;1287;98569;-76
2022/12/21 00:31:48;;;;;;;163.40;89.80;;;;;;;-0.17;90.32;98995.30;86219;1287;22491;-76
2022/12/21 00:33:51;;;;;;;150.40;84.50;;;;;;;-0.17;90.30;98988.74;86336;1287;22610;-74
2022/12/21 00:35:53;;;;;;;148.70;80.40;;;;;;;-0.15;90.32;98989.94;86247;1287;99668;-77
2022/12/21 00:37:54;;;;;;;187.60;93.80;;;;;;;-0.14;90.47;98994.24;86354;1287;22491;-77
2022/12/21 00:39:56;;;;;;;155.90;85.30;;;;;;;-0.14;90.41;99004.78;86525;1288;22520;-77
2022/12/21 00:41:58;;;;;;;147.20;73.00;;;;;;;-0.13;90.40;99000.30;86212;1291;99793;-74
2022/12/21 00:43:59;;;;;;;143.10;75.50;;;;;;;-0.12;90.39;99012.38;86589;1287;23962;-75
2022/12/21 00:46:01;;;;;;;156.10;87.00;;;;;;;-0.11;90.43;99019.98;86527;1291;22606;-76
2022/12/21 00:48:04;;;;;;;124.70;70.80;;;;;;;-0.10;90.45;99016.51;86433;1287;100012;-76
2022/12/21 00:50:06;;;;;;;112.00;63.20;;;;;;;-0.10;90.35;99012.36;86587;1293;22742;-76
2022/12/21 00:52:08;;;;;;;157.20;84.10;;;;;;;-0.08;90.40;99007.01;86681;1287;24340;-76
2022/12/21 00:54:10;;;;;;;171.60;87.80;;;;;;;-0.08;90.40;99000.95;86482;1284;99387;-74
2022/12/21 00:56:12;;;;;;;156.50;80.10;;;;;;;-0.07;90.31;99002.85;86436;1288;22624;-76
2022/12/21 00:58:14;;;;;;;163.20;84.20;;;;;;;-0.07;90.34;99008.54;86591;1294;22476;-76
2022/12/21 01:00:16;;;;;;;170.50;89.70;;;;;;;-0.06;90.34;99013.73;86499;1281;98226;-75
2022/12/21 01:02:17;;;;;;;180.00;92.70;;;;;;;-0.07;90.30;99005.77;86495;1288;22523;-73
2022/12/21 01:04:21;;;;;;;170.30;91.00;;;;;;;-0.05;90.25;99009.59;86445;1291;23000;-76
2022/12/21 01:06:26;;;;;;;180.70;96.90;;;;;;;-0.06;90.25;99009.92;86270;1283;99440;-76
2022/12/21 01:08:28;;;;;;;182.20;97.60;;;;;;;-0.06;90.25;99007.86;86442;1284;22480;-76
2022/12/21 01:10:30;;;;;;;173.40;88.60;;;;;;;-0.06;90.35;99000.08;86499;1287;27810;-76
2022/12/21 01:12:31;;;;;;;175.20;91.30;;;;;;;-0.06;90.28;98993.70;86367;1290;98403;-77
2022/12/21 01:14:33;;;;;;;178.80;95.60;;;;;;;-0.06;90.26;98988.52;86417;1298;24493;-73
2022/12/21 01:16:34;;;;;;;158.40;82.60;;;;;;;-0.06;90.50;98983.85;86672;1284;22538;-76
2022/12/21 01:18:36;;;;;;;170.70;90.20;;;;;;;-0.08;90.43;98981.09;86413;1290;99789;-76
2022/12/21 01:20:43;;;;;;;186.70;99.30;;;;;;;-0.05;90.32;98989.54;86489;1288;26975;-78
2022/12/21 01:22:45;;;;;;;153.40;74.90;;;;;;;-0.05;90.30;98987.82;86450;1297;22733;-76
2022/12/21 01:24:47;;;;;;;150.60;78.30;;;;;;;-0.05;90.50;98984.36;86381;1290;98483;-76
2022/12/21 01:26:49;;;;;;;157.10;81.50;;;;;;;-0.05;90.28;98976.25;86405;1290;28195;-76
2022/12/21 01:28:51;;;;;;;160.10;83.80;;;;;;;-0.04;90.62;98974.34;86597;1289;23018;-76
2022/12/21 01:30:52;;;;;;;161.30;85.20;;;;;;;-0.04;90.49;98970.55;86324;1290;100281;-76
2022/12/21 01:32:54;;;;;;;155.90;85.60;;;;;;;-0.03;90.39;98970.88;86327;1290;22530;-77
2022/12/21 01:34:56;;;;;;;185.70;98.40;;;;;;;-0.03;90.46;98963.97;86631;1295;22582;-75
2022/12/21 01:36:58;;;;;;;202.50;105.30;;;;;;;-0.03;90.57;98955.00;86411;1291;99672;-76
2022/12/21 01:39:00;;;;;;;191.60;101.60;;;;;;;-0.06;90.62;98948.27;86609;1284;22783;-76
2022/12/21 01:41:02;;;;;;;180.10;90.70;;;;;;;-0.02;90.48;98941.34;86356;1290;22560;-76
2022/12/21 01:43:49;;;;;;;159.20;87.00;;;;;;;-0.02;90.41;98936.67;86482;1287;98913;-77
2022/12/21 01:45:51;;;;;;;185.10;99.90;;;;;;;-0.03;90.46;98948.42;86364;1287;25224;-76
2022/12/21 01:47:59;;;;;;;207.30;105.10;;;;;;;-0.03;90.46;98950.14;86370;1287;98953;-76
2022/12/21 01:50:16;;;;;;;175.60;97.30;;;;;;;-0.04;90.48;98941.52;86474;1288;22502;-76
2022/12/21 01:52:18;;;;;;;152.70;84.30;;;;;;;-0.04;90.46;98939.61;86539;1287;22547;-76
2022/12/21 01:54:27;;;;;;;212.60;98.80;;;;;;;-0.04;90.64;98947.56;86495;1287;99430;-75
2022/12/21 01:56:34;;;;;;;206.10;102.20;;;;;;;-0.04;90.55;98948.27;86452;1291;22562;-76
2022/12/21 01:58:39;;;;;;;204.30;105.10;;;;;;;-0.04;90.44;98951.53;86466;1288;22568;-73
2022/12/21 02:00:40;;;;;;;222.70;107.20;;;;;;;-0.03;90.48;98951.35;86507;1293;99729;-74
2022/12/21 02:02:51;;;;;;;186.00;99.90;;;;;;;-0.03;90.46;98938.06;86407;1288;24118;-75
2022/12/21 02:04:55;;;;;;;;;;;;;;;-0.03;90.47;98933.73;86727;1287;24768;-75
2022/12/21 02:06:58;;;;;;;169.70;89.10;;;;;;;-0.04;90.34;98930.46;86536;1288;84244;-75
2022/12/21 02:09:01;;;;;;;180.00;99.60;;;;;;;-0.04;90.37;98919.91;86434;1291;22476;-76
2022/12/21 02:11:04;;;;;;;171.20;83.50;;;;;;;-0.03;90.37;98918.36;86417;1291;22516;-76
2022/12/21 02:13:10;;;;;;;114.20;61.60;;;;;;;-0.03;90.47;98908.70;86529;1287;98237;-76
2022/12/21 02:15:12;;;;;;;160.10;82.60;;;;;;;-0.03;90.55;98900.74;86456;1291;22604;-76
2022/12/21 02:17:25;;;;;;;105.10;54.50;;;;;;;-0.03;90.34;98908.68;86377;1283;22580;-76
2022/12/21 02:19:38;;;;;;;158.10;84.90;;;;;;;-0.03;90.43;98913.17;86534;1287;98254;-77
2022/12/21 02:21:57;;;;;;;192.40;101.20;;;;;;;-0.02;90.46;98923.71;86471;1291;22518;-76
2022/12/21 02:24:11;;;;;;;193.00;105.30;;;;;;;-0.03;90.62;98925.96;86868;1288;98430;-76
2022/12/21 02:26:37;;;;;;;157.90;80.70;;;;;;;-0.03;90.35;98919.40;86556;1288;26491;-76
2022/12/21 02:29:00;;;;;;;173.20;90.80;;;;;;;-0.03;90.42;98912.84;86515;1290;22543;-76
2022/12/21 02:31:06;;;;;;;172.20;92.60;;;;;;;-0.03;90.39;98900.58;86514;1286;98849;-77
2022/12/21 02:33:51;;;;;;;167.10;85.60;;;;;;;-0.02;90.54;98907.14;86531;1287;22560;-76
2022/12/21 02:36:12;;;;;;;183.40;94.00;;;;;;;-0.03;90.52;98917.16;86433;1280;99746;-76
2022/12/21 02:38:54;;;;;;;159.50;85.70;;;;;;;-0.03;90.45;98921.48;86548;1287;22611;-76
2022/12/21 02:41:07;;;;;;;195.30;103.80;;;;;;;-0.06;90.34;98921.48;86542;1288;22692;-76
2022/12/21 02:46:05;;;;;;;186.00;102.50;;;;;;;-0.08;90.39;98908.56;86568;1287;22786;-75
2022/12/21 02:48:33;;;;;;;174.60;95.30;;;;;;;-0.09;90.48;98913.23;86332;1285;98855;-75
2022/12/21 02:50:39;;;;;;;181.50;97.10;;;;;;;-0.09;90.65;98912.36;86423;1289;22883;-74
2022/12/21 02:52:46;;;;;;;175.50;95.30;;;;;;;-0.09;90.46;98910.80;86898;1287;22431;-76
2022/12/21 02:54:56;;;;;;;185.80;100.80;;;;;;;-0.10;90.36;98915.14;86219;1287;99444;-75
2022/12/21 02:56:57;;;;;;;181.30;95.20;;;;;;;-0.12;90.41;98898.05;86128;1287;22590;-75
2022/12/21 02:59:01;;;;;;;176.40;95.60;;;;;;;-0.13;90.39;98888.55;86232;1287;22509;-74
2022/12/21 03:01:08;;;;;;;140.80;75.40;;;;;;;-0.12;90.46;98887.34;86345;1287;98192;-73
2022/12/21 03:05:52;;;;;;;166.20;89.10;;;;;;;-0.10;90.25;98917.89;86341;1287;24986;-75
2022/12/21 03:08:00;;;;;;;142.70;83.20;;;;;;;-0.12;90.32;98913.06;86202;1287;22706;-74
2022/12/21 03:10:15;;;;;;;164.50;87.10;;;;;;;-0.09;90.40;98906.15;86129;1287;22867;-74
2022/12/21 03:12:20;;;;;;;56.50;31.90;;;;;;;-0.10;90.35;98899.75;86282;1285;99510;-74
2022/12/21 03:14:38;;;;;;;75.00;44.10;;;;;;;-0.09;90.46;98902.35;86332;1295;22605;-74
2022/12/21 03:16:52;;;;;;;46.80;27.20;;;;;;;-0.08;90.45;98895.59;86292;1297;22587;-74
2022/12/21 03:18:58;;;;;;;129.40;60.10;;;;;;;-0.08;90.53;98901.13;86418;1290;99159;-75
2022/12/21 03:21:42;;;;;;;177.60;91.50;;;;;;;-0.07;90.45;98917.02;86967;1296;22546;-73
2022/12/21 03:23:56;;;;;;;175.20;90.20;;;;;;;-0.08;90.31;98897.15;86430;1284;99649;-72
2022/12/21 03:25:57;;;;;;;113.10;59.10;;;;;;;-0.08;90.27;98895.61;86208;1292;22865;-74
2022/12/21 03:28:08;;;;;;;169.60;86.50;;;;;;;-0.07;90.38;98913.38;86174;1284;22544;-74
2022/12/21 03:30:14;;;;;;;138.70;73.50;;;;;;;-0.07;90.41;98915.27;85929;1288;99621;-77
2022/12/21 03:32:35;;;;;;;156.70;71.90;;;;;;;-0.07;90.20;98912.17;86027;1291;22770;-75
2022/12/21 03:34:41;;;;;;;147.90;76.60;;;;;;;-0.06;90.44;98917.35;85786;1294;22537;-76
2022/12/21 03:36:49;;;;;;;162.70;82.50;;;;;;;-0.05;90.42;98914.24;85907;1294;101126;-75
2022/12/21 03:38:59;;;;;;;137.50;76.60;;;;;;;-0.05;90.60;98916.30;86040;1290;23877;-75
2022/12/21 03:41:05;;;;;;;179.00;91.70;;;;;;;-0.04;90.45;98922.70;85745;1298;22507;-75
2022/12/21 03:43:17;;;;;;;173.60;97.00;;;;;;;-0.05;90.35;98920.11;85781;1293;99326;-75
2022/12/21 03:45:25;;;;;;;225.10;112.80;;;;;;;-0.03;90.55;98927.52;86060;1291;22708;-75
2022/12/21 03:48:02;;;;;;;166.60;89.10;;;;;;;-0.03;90.49;98924.77;86046;1293;23381;-74
2022/12/21 03:50:12;;;;;;;209.80;102.30;;;;;;;-0.03;90.47;98922.85;85530;1297;22501;-75
2022/12/21 03:52:20;;;;;;;169.60;90.30;;;;;;;-0.03;90.34;98918.37;85565;1306;22553;-74
2022/12/21 03:54:59;;;;;;;205.20;106.00;;;;;;;-0.03;90.36;98914.57;85212;1309;99497;-75
2022/12/21 03:57:01;;;;;;;191.50;101.70;;;;;;;-0.03;90.49;98906.45;85482;1297;24334;-75
2022/12/21 03:59:05;;;;;;;170.60;91.40;;;;;;;-0.03;90.44;98905.59;85429;1301;25500;-75
2022/12/21 04:01:16;;;;;;;206.30;104.70;;;;;;;-0.03;90.47;98906.27;85372;1297;100490;-74
2022/12/21 04:03:25;;;;;;;189.80;98.40;;;;;;;-0.02;90.54;98907.48;85749;1294;24622;-74
2022/12/21 04:05:38;;;;;;;154.00;80.50;;;;;;;-0.03;90.61;98906.97;85778;1299;25513;-74
2022/12/21 04:07:42;;;;;;;133.50;73.40;;;;;;;-0.03;90.49;98916.98;85741;1294;98151;-74
2022/12/21 04:09:44;;;;;;;159.40;86.00;;;;;;;-0.12;90.58;98902.70;85825;1294;22854;-73
2022/12/21 04:14:06;;;;;;;157.90;81.40;;;;;;;-0.03;90.41;98920.44;85786;1294;22547;-74
2022/12/21 04:16:07;;;;;;;171.90;88.10;;;;;;;-0.03;90.61;98920.27;85784;1303;22543;-74
2022/12/21 04:18:09;;;;;;;177.50;93.60;;;;;;;-0.03;90.53;98915.95;85501;1306;99337;-75
2022/12/21 04:20:14;;;;;;;167.80;90.50;;;;;;;-0.04;90.54;98916.48;85859;1293;22636;-75
2022/12/21 04:28:07;;;;;;;157.40;80.70;;;;;;;-0.05;90.55;98911.12;85980;1293;22680;-74
2022/12/21 04:28:07;;;;;;;116.60;63.80;;;;;;;-0.06;90.45;98908.88;86030;1302;22508;-75
2022/12/21 04:29:31;;;;;;;142.70;77.60;;;;;;;-0.06;90.45;98903.02;86321;1288;22901;-75
2022/12/21 04:31:33;;;;;;;170.90;86.90;;;;;;;-0.06;90.49;98903.36;86263;1288;98221;-75
2022/12/21 04:33:34;;;;;;;164.70;90.20;;;;;;;-0.11;90.55;98896.66;86310;1287;22686;-75
2022/12/21 04:37:30;;;;;;;154.30;78.60;;;;;;;-0.07;90.60;98900.44;86372;1287;22496;-75
2022/12/21 04:37:59;;;;;;;152.40;78.20;;;;;;;-0.07;90.53;98908.90;86304;1289;23364;-75
2022/12/21 04:40:03;;;;;;;131.70;70.50;;;;;;;-0.06;90.62;98904.74;86445;1296;23745;-74
2022/12/21 04:42:04;;;;;;;151.80;81.80;;;;;;;-0.06;90.35;98903.53;86291;1287;99997;-74
2022/12/21 04:44:06;;;;;;;147.40;75.70;;;;;;;-0.06;90.58;98904.21;86424;1288;24383;-74
2022/12/21 04:46:13;;;;;;;142.70;76.20;;;;;;;-0.05;90.55;98910.44;86394;1294;24402;-74
2022/12/21 04:48:16;;;;;;;141.70;75.30;;;;;;;-0.05;90.49;98911.48;86340;1293;99646;-74
2022/12/21 04:50:17;;;;;;;157.10;80.30;;;;;;;-0.05;90.57;98916.83;86725;1294;22505;-74
2022/12/21 04:52:19;;;;;;;153.60;83.50;;;;;;;-0.05;90.46;98921.14;86467;1288;26485;-75
2022/12/21 04:54:21;;;;;;;193.80;95.10;;;;;;;-0.06;90.64;98928.92;86340;1294;98305;-75
2022/12/21 04:56:22;;;;;;;173.50;89.20;;;;;;;-0.05;90.51;98927.89;86418;1296;23893;-74
2022/12/21 04:58:24;;;;;;;143.40;79.90;;;;;;;-0.06;90.52;98929.44;86572;1296;22492;-74
2022/12/21 05:00:26;;;;;;;156.40;83.30;;;;;;;-0.05;90.61;98926.15;86169;1296;98335;-74
2022/12/21 05:02:27;;;;;;;155.10;75.50;;;;;;;-0.05;90.52;98922.35;86315;1287;22530;-75
2022/12/21 05:04:29;;;;;;;164.30;85.70;;;;;;;-0.05;90.59;98918.73;86307;1309;25874;-74
2022/12/21 05:06:31;;;;;;;144.70;72.20;;;;;;;-0.05;90.64;98922.52;86202;1301;100079;-73
2022/12/21 05:08:33;;;;;;;157.80;80.70;;;;;;;-0.05;90.72;98919.08;86466;1294;25324;-73
2022/12/21 05:10:35;;;;;;;162.80;81.80;;;;;;;-0.05;90.46;98931.00;86444;1292;22500;-73
2022/12/21 05:12:37;;;;;;;165.90;84.10;;;;;;;-0.05;90.53;98932.36;86349;1294;98208;-74
2022/12/21 05:14:39;;;;;;;144.70;73.30;;;;;;;-0.06;90.61;98934.27;86217;1297;22503;-73
2022/12/21 05:16:40;;;;;;;173.20;89.80;;;;;;;-0.09;90.48;98917.71;86367;1287;22530;-73
2022/12/21 05:18:43;;;;;;;173.00;88.90;;;;;;;-0.06;90.45;98925.80;86327;1295;100173;-73
2022/12/21 05:20:44;;;;;;;169.40;90.50;;;;;;;-0.07;90.51;98925.13;86455;1281;22484;-75
2022/12/21 05:22:46;;;;;;;179.90;91.50;;;;;;;-0.09;90.58;98915.64;86362;1290;22609;-73
2022/12/21 05:24:48;;;;;;;175.00;92.30;;;;;;;-0.10;90.48;98918.75;86328;1290;99651;-74
2022/12/21 05:26:50;;;;;;;171.10;87.50;;;;;;;-0.11;90.63;98921.18;86364;1297;23263;-75
2022/12/21 05:28:52;;;;;;;134.90;69.50;;;;;;;-0.12;90.49;98918.60;86281;1289;24241;-74
2022/12/21 05:30:54;;;;;;;161.00;84.50;;;;;;;-0.12;90.40;98919.28;86149;1291;99357;-73
2022/12/21 05:32:55;;;;;;;155.20;81.10;;;;;;;-0.11;90.52;98919.61;86236;1289;23257;-73
2022/12/21 05:34:57;;;;;;;137.40;77.10;;;;;;;-0.11;90.57;98917.02;86486;1294;24428;-74
2022/12/21 05:36:59;;;;;;;152.50;79.80;;;;;;;-0.11;90.40;98920.14;86311;1295;99544;-74
2022/12/21 05:39:01;;;;;;;146.60;78.60;;;;;;;-0.10;90.64;98915.64;86365;1301;24279;-74
2022/12/21 05:41:03;;;;;;;151.30;79.30;;;;;;;-0.10;90.58;98918.59;86527;1288;22519;-74
2022/12/21 05:43:05;;;;;;;173.10;92.50;;;;;;;-0.15;90.47;98917.23;86322;1282;98295;-73
2022/12/21 05:45:07;;;;;;;169.00;87.50;;;;;;;-0.11;90.30;98930.84;86247;1296;22585;-73
2022/12/21 05:47:09;;;;;;;170.90;92.10;;;;;;;-0.13;90.42;98932.07;86561;1299;22614;-73
2022/12/21 05:49:11;;;;;;;140.40;76.90;;;;;;;-0.15;90.42;98932.08;86619;1303;99557;-72
2022/12/21 05:51:14;;;;;;;179.60;91.30;;;;;;;-0.15;90.62;98932.94;86926;1296;22693;-73
2022/12/21 05:53:15;;;;;;;170.00;89.50;;;;;;;-0.15;90.47;98930.70;86650;1304;22502;-74
2022/12/21 05:55:17;;;;;;;167.30;84.40;;;;;;;-0.16;90.35;98926.22;86629;1296;98317;-74
2022/12/21 05:57:18;;;;;;;164.30;85.50;;;;;;;-0.16;90.42;98927.09;86684;1296;22568;-73
2022/12/21 05:59:20;;;;;;;175.70;86.90;;;;;;;-0.16;90.46;98928.30;86421;1288;22534;-74
2022/12/21 06:01:22;;;;;;;175.20;89.00;;;;;;;-0.16;90.18;98928.98;86439;1303;98899;-74
2022/12/21 06:03:24;;;;;;;164.00;85.90;;;;;;;-0.17;90.36;98924.33;86433;1302;22942;-75
2022/12/21 06:05:27;;;;;;;153.50;84.10;;;;;;;-0.16;90.35;98929.34;86453;1296;22697;-74
2022/12/21 06:07:28;;;;;;;155.90;84.80;;;;;;;-0.18;90.29;98925.19;86250;1291;98365;-73
2022/12/21 06:09:30;;;;;;;146.50;78.40;;;;;;;-0.19;90.44;98923.47;86473;1287;25402;-72
2022/12/21 06:11:32;;;;;;;140.60;74.20;;;;;;;-0.19;90.18;98920.70;86295;1290;22699;-72
2022/12/21 06:13:34;;;;;;;136.70;75.00;;;;;;;-0.19;90.32;98924.50;86230;1287;99583;-74
2022/12/21 06:15:36;;;;;;;157.30;85.00;;;;;;;-0.17;90.37;98927.27;86177;1290;22491;-73
2022/12/21 06:17:38;;;;;;;161.10;88.70;;;;;;;-0.17;90.30;98925.88;86219;1286;24160;-73
2022/12/21 06:19:39;;;;;;;164.40;83.10;;;;;;;-0.18;90.35;98925.88;86140;1289;98416;-73
2022/12/21 06:21:41;;;;;;;165.30;87.90;;;;;;;-0.19;90.26;98917.44;86281;1287;25312;-74
2022/12/21 06:23:43;;;;;;;165.10;84.10;;;;;;;-0.21;90.33;98918.13;86124;1290;24308;-74
2022/12/21 06:25:45;;;;;;;144.30;78.10;;;;;;;-0.24;90.11;98915.72;86068;1291;99506;-74
2022/12/21 06:27:47;;;;;;;150.90;84.40;;;;;;;-0.26;90.19;98912.64;86371;1285;23351;-72
2022/12/21 06:29:49;;;;;;;172.20;87.40;;;;;;;-0.26;90.05;98914.70;86184;1287;24377;-73
2022/12/21 06:31:50;;;;;;;152.30;78.70;;;;;;;-0.27;90.08;98909.18;86149;1288;98651;-74
2022/12/21 06:33:54;;;;;;;163.30;85.90;;;;;;;-0.27;90.14;98912.81;86212;1289;22538;-73
2022/12/21 06:35:55;;;;;;;154.20;84.90;;;;;;;-0.29;90.15;98920.08;86250;1287;22668;-73
2022/12/21 06:37:57;;;;;;;151.60;80.30;;;;;;;-0.31;90.07;98917.66;86332;1290;98158;-74
2022/12/21 06:39:59;;;;;;;149.70;79.80;;;;;;;-0.31;90.14;98916.45;86273;1287;25595;-72
2022/12/21 06:42:00;;;;;;;141.50;77.90;;;;;;;-0.31;90.10;98918.52;86068;1297;99005;-72
2022/12/21 06:44:02;;;;;;;155.20;81.00;;;;;;;-0.30;90.11;98920.59;86224;1287;24565;-72
2022/12/21 06:46:07;;;;;;;128.90;69.10;;;;;;;-0.28;89.91;98916.10;86323;1288;24376;-72
2022/12/21 06:48:09;;;;;;;124.80;69.50;;;;;;;-0.29;90.23;98908.50;86071;1291;100080;-73
2022/12/21 06:50:11;;;;;;;129.80;66.60;;;;;;;-0.25;90.21;98912.27;86262;1290;23050;-72
2022/12/21 06:52:12;;;;;;;144.00;77.30;;;;;;;-0.23;90.22;98901.57;86290;1287;22687;-73
2022/12/21 06:54:14;;;;;;;133.50;72.40;;;;;;;-0.23;90.36;98904.84;86151;1294;99753;-73
2022/12/21 06:56:24;;;;;;;130.20;66.20;;;;;;;-0.22;90.19;98904.67;86310;1281;24268;-72
2022/12/21 06:58:27;;;;;;;131.60;69.10;;;;;;;-0.20;90.21;98898.27;86254;1287;22603;-73
2022/12/21 07:00:29;;;;;;;129.10;69.50;;;;;;;-0.19;90.33;98892.55;86236;1290;100080;-73
2022/12/21 07:02:30;;;;;;;126.50;70.60;;;;;;;-0.18;90.34;98889.09;86257;1289;22439;-73
2022/12/21 07:04:32;;;;;;;131.70;72.70;;;;;;;-0.17;90.34;98897.03;86370;1305;22504;-72
2022/12/21 07:06:34;;;;;;;155.00;83.00;;;;;;;-0.16;90.26;98908.61;86572;1312;98315;-73
2022/12/21 07:08:36;;;;;;;127.90;72.00;;;;;;;-0.16;90.31;98905.84;86971;1296;22523;-72
2022/12/21 07:10:39;;;;;;;120.00;66.00;;;;;;;-0.15;90.31;98903.06;87253;1281;22490;-71
2022/12/21 07:12:41;;;;;;;147.90;78.70;;;;;;;-0.14;90.37;98905.65;86740;1281;99435;-71
2022/12/21 07:14:42;;;;;;;138.60;74.40;;;;;;;-0.13;90.30;98901.67;86538;1284;25867;-72
2022/12/21 07:16:44;;;;;;;147.00;74.90;;;;;;;-0.13;90.28;98896.33;86294;1280;22531;-71
2022/12/21 07:18:47;;;;;;;145.70;75.20;;;;;;;-0.12;90.39;98896.85;86088;1288;99562;-72
2022/12/21 07:20:49;;;;;;;153.40;80.50;;;;;;;-0.12;90.38;98899.60;86230;1280;22651;-72
2022/12/21 07:22:51;;;;;;;174.30;89.70;;;;;;;-0.12;90.29;98904.44;85933;1284;22581;-72
2022/12/21 07:24:52;;;;;;;149.70;80.00;;;;;;;-0.12;90.41;98895.10;86093;1299;99770;-72
2022/12/21 07:26:54;;;;;;;123.40;65.00;;;;;;;-0.12;90.30;98894.95;86075;1288;22608;-72
2022/12/21 07:28:56;;;;;;;134.80;74.90;;;;;;;-0.12;90.43;98899.26;85965;1291;22872;-72
2022/12/21 07:31:09;;;;;;;137.80;75.20;;;;;;;-0.12;90.36;98892.17;86055;1289;99395;-72
2022/12/21 07:33:10;;;;;;;111.00;59.50;;;;;;;-0.11;90.37;98884.75;86302;1280;23020;-72
2022/12/21 07:35:12;;;;;;;113.90;61.70;;;;;;;-0.11;90.36;98889.05;86175;1283;22549;-73
2022/12/21 07:37:14;;;;;;;109.10;60.30;;;;;;;-0.11;90.20;98886.80;86055;1296;99996;-72
2022/12/21 07:39:16;;;;;;;122.00;65.50;;;;;;;-0.10;90.28;98880.94;86104;1291;22443;-72
2022/12/21 07:41:18;;;;;;;113.50;59.40;;;;;;;-0.10;90.37;98880.23;86033;1291;23443;-72
2022/12/21 07:43:19;;;;;;;127.40;71.90;;;;;;;-0.08;90.42;98872.81;86050;1289;98438;-72
2022/12/21 07:45:21;;;;;;;121.70;64.00;;;;;;;-0.08;90.39;98867.29;86098;1288;24341;-72
2022/12/21 07:47:23;;;;;;;103.50;58.80;;;;;;;-0.08;90.42;98868.31;86139;1287;25385;-72
2022/12/21 07:49:24;;;;;;;75.00;43.00;;;;;;;-0.08;90.41;98861.23;86190;1289;99546;-73
2022/12/21 07:51:26;;;;;;;109.50;52.20;;;;;;;-0.07;90.37;98865.71;86011;1290;22748;-72
2022/12/21 07:53:28;;;;;;;62.90;36.60;;;;;;;-0.07;90.35;98867.78;86085;1284;22609;-73
2022/12/21 07:55:31;;;;;;;19.80;14.10;;;;;;;-0.06;90.42;98865.01;86190;1288;99423;-73
2022/12/21 07:57:33;;;;;;;67.20;32.50;;;;;;;-0.06;90.28;98865.88;86199;1288;23832;-72
2022/12/21 07:59:35;;;;;;;25.40;12.40;;;;;;;-0.05;90.45;98864.33;86293;1281;22782;-73
2022/12/21 08:01:36;;;;;;;84.30;42.60;;;;;;;-0.04;90.51;98857.41;86015;1289;99340;-72
2022/12/21 08:03:41;;;;;;;154.80;76.10;;;;;;;-0.04;90.30;98861.90;86067;1289;22979;-73
2022/12/21 08:05:43;;;;;;;97.20;58.20;;;;;;;-0.03;90.36;98854.98;86252;1289;22623;-72
2022/12/21 08:07:45;;;;;;;72.20;41.20;;;;;;;-0.03;90.36;98854.80;86092;1287;99349;-71
2022/12/21 08:09:47;;;;;;;104.20;54.80;;;;;;;-0.02;90.41;98856.86;86230;1287;25378;-71
2022/12/21 08:11:48;;;;;;;113.60;64.20;;;;;;;-0.02;90.22;98854.27;86146;1286;22797;-73
2022/12/21 08:13:50;;;;;;;131.50;72.30;;;;;;;-0.01;90.32;98852.02;86068;1286;99338;-73
2022/12/21 08:16:02;;;;;;;139.40;74.00;;;;;;;-0.02;90.23;98854.97;86299;1287;22600;-73
2022/12/21 08:18:04;;;;;;;84.70;41.40;;;;;;;-0.04;90.40;98847.04;86203;1288;101207;-73
2022/12/21 08:20:07;;;;;;;96.20;40.60;;;;;;;-0.01;90.49;98847.37;86159;1281;24291;-72
2022/12/21 08:22:09;;;;;;;91.00;41.00;;;;;;;-0.01;90.54;98845.12;85936;1281;22471;-72
2022/12/21 08:24:11;;;;;;;79.00;47.90;;;;;;;-0.01;90.49;98845.98;85861;1288;99460;-72
2022/12/21 08:26:13;;;;;;;124.60;66.40;;;;;;;-0.01;90.47;98851.33;85936;1286;22514;-72
2022/12/21 08:28:15;;;;;;;135.70;71.80;;;;;;;-0.01;90.49;98844.42;85917;1287;22588;-72
2022/12/21 08:30:17;;;;;;;76.30;30.50;;;;;;;-0.00;90.61;98842.36;85887;1291;99703;-73
2022/12/21 08:32:18;;;;;;;92.50;44.90;;;;;;;-0.01;90.54;98849.78;86439;1290;25887;-72
2022/12/21 08:34:20;;;;;;;88.00;46.50;;;;;;;-0.00;90.63;98840.29;86579;1288;22481;-72
2022/12/21 08:36:23;;;;;;;118.70;58.30;;;;;;;0.00;90.64;98839.92;86669;1296;99432;-73
2022/12/21 08:38:25;;;;;;;125.80;64.60;;;;;;;-0.01;90.51;98840.11;86617;1288;24339;-72
2022/12/21 08:40:27;;;;;;;122.80;66.90;;;;;;;-0.02;90.51;98851.69;86324;1283;22497;-72
2022/12/21 08:42:29;;;;;;;110.50;60.20;;;;;;;-0.03;90.47;98846.34;86208;1291;99401;-73
2022/12/21 08:44:30;;;;;;;120.90;63.60;;;;;;;-0.04;90.36;98839.95;86389;1287;22487;-73
2022/12/21 08:46:32;;;;;;;129.00;63.70;;;;;;;-0.05;90.39;98829.59;86677;1285;22738;-73
2022/12/21 08:48:35;;;;;;;99.40;51.80;;;;;;;-0.04;90.52;98831.33;86306;1289;100240;-73
2022/12/21 08:50:37;;;;;;;124.90;62.80;;;;;;;-0.04;90.43;98837.03;86928;1287;22955;-73
2022/12/21 08:52:38;;;;;;;122.10;64.90;;;;;;;-0.06;90.40;98837.21;86739;1287;22587;-74
2022/12/21 08:54:40;;;;;;;120.20;64.30;;;;;;;-0.08;90.36;98831.36;86518;1290;98679;-73
2022/12/21 08:56:42;;;;;;;78.80;40.10;;;;;;;-0.09;90.25;98831.02;86924;1287;22571;-72
2022/12/21 08:58:43;;;;;;;119.70;62.20;;;;;;;-0.09;90.32;98831.89;86754;1298;22717;-72
2022/12/21 09:00:45;;;;;;;118.20;66.00;;;;;;;-0.09;90.31;98829.46;86624;1288;98477;-72
2022/12/21 09:02:47;;;;;;;128.90;69.90;;;;;;;-0.10;90.34;98824.64;86624;1291;22627;-73
2022/12/21 09:04:48;;;;;;;131.00;67.90;;;;;;;-0.10;90.20;98823.77;86557;1289;22927;-73
2022/12/21 09:06:50;;;;;;;122.50;67.60;;;;;;;-0.10;90.28;98822.04;86532;1290;100346;-74
2022/12/21 09:08:52;;;;;;;96.00;51.20;;;;;;;-0.09;90.41;98820.82;86791;1297;23984;-74
2022/12/21 09:11:06;;;;;;;119.90;62.80;;;;;;;-0.09;90.52;98810.46;86867;1294;22523;-74
2022/12/21 09:13:08;;;;;;;97.00;53.40;;;;;;;-0.08;90.39;98816.16;86787;1290;98944;-74
2022/12/21 09:15:10;;;;;;;105.70;54.60;;;;;;;-0.08;90.42;98824.45;86534;1291;24230;-73
2022/12/21 09:17:12;;;;;;;111.50;58.40;;;;;;;-0.08;90.37;98825.15;86658;1298;22563;-73
2022/12/21 09:19:13;;;;;;;126.30;61.40;;;;;;;-0.09;90.35;98820.30;86372;1289;99371;-73
2022/12/21 09:21:18;;;;;;;126.70;65.30;;;;;;;-0.10;90.38;98815.83;86743;1288;23799;-72
2022/12/21 09:23:20;;;;;;;114.30;60.20;;;;;;;-0.10;90.48;98805.64;86696;1296;22846;-73
2022/12/21 09:25:22;;;;;;;106.50;56.30;;;;;;;-0.11;90.41;98798.39;86693;1295;99588;-73
2022/12/21 09:27:23;;;;;;;127.40;66.70;;;;;;;-0.11;90.39;98801.67;86692;1296;24270;-74
2022/12/21 09:29:25;;;;;;;121.20;62.00;;;;;;;-0.12;90.34;98802.89;86466;1292;23699;-74
2022/12/21 09:31:27;;;;;;;127.50;66.30;;;;;;;-0.12;90.30;98798.39;86629;1288;99655;-74
2022/12/21 09:33:29;;;;;;;139.10;68.30;;;;;;;-0.12;90.35;98794.42;86608;1288;25572;-73
2022/12/21 09:35:30;;;;;;;136.10;66.10;;;;;;;-0.13;90.31;98795.47;86583;1293;22664;-74
2022/12/21 09:37:32;;;;;;;134.90;70.40;;;;;;;-0.17;90.41;98804.14;86425;1293;98209;-74